Nearby METAR Reports

 

KMTN - Baltimore/Martin, Maryland, USA
Distance from station: SSE 8mi, 13km
Updated: Sun, 01-Feb-2015 7:50am EST
Overcast
Overcast
 Wind from calm
Wind: Calm
Temperature: 27°F , -3°C
Dew Point: 23°F , -5°C
Humidity: 86%
Barometer: 30.30 inHg , 1026.1 hPa
Clouds: Overcast
Visibility: 10 miles , 16 km
Cloud details: Overcast 10000 ft
2015/02/01 12:50 KMTN 011250Z 00000KT 10SM OVC100 M03/M05 A3030
KDMH - Baltimore/Dwntwn, Maryland, USA
Distance from station: SW 12mi, 19km
Updated: Sun, 01-Feb-2015 7:54am EST

 
Temperature: 28°F , -2°C
Dew Point: 14°F , -10°C
Humidity: 55%
Barometer: 30.29 inHg , 1025.7 hPa
2015/02/01 12:54 KDMH 011254Z AUTO M02/M10 A3029 RMK AO1 SLP255 T10221100
 
KBWI - Balto/Wash Intl, Maryland, USA
Distance from station: SSW 20mi, 33km
Updated: Sun, 01-Feb-2015 7:54am EST
Overcast
Overcast
 Wind from WSW
Wind: WSW 3 mph , 6 km/h
Temperature: 25°F , -4°C
Dew Point: 18°F , -8°C
Humidity: 74%
Barometer: 30.28 inHg , 1025.4 hPa
Clouds: Overcast
Visibility: 10 miles , 16 km
Cloud details: Partly cloudy 6500 ft
Overcast 8000 ft
2015/02/01 12:54 KBWI 011254Z 24003KT 10SM SCT065 OVC080 M04/M08 A3028 RMK AO2 SLP255 VIRGA ALQDS T10391083
KDMW - Carroll Cnty, Maryland, USA
Distance from station: WNW 30mi, 48km
Updated: Sun, 01-Feb-2015 7:55am EST
Partly cloudy
Partly cloudy
 Wind from SW
Wind: SW 5 mph , 7 km/h
Temperature: 30°F , -1°C
Wind Chill: 25°F , -4°C
Dew Point: 12°F , -11°C
Humidity: 47%
Barometer: 30.23 inHg , 1023.7 hPa
Clouds: Partly cloudy
Visibility: 10 miles , 16 km
Cloud details: Partly cloudy 6500 ft
2015/02/01 12:55 KDMW 011255Z AUTO 22004KT 10SM SCT065 M01/M11 A3023 RMK AO2
 
KNAK - Annapolis/Naval, Maryland, USA
Distance from station: S 30mi, 48km
Updated: Sun, 01-Feb-2015 7:54am EST
Overcast
Overcast
 Wind from calm
Wind: Calm
Temperature: 27°F , -3°C
Dew Point: 18°F , -8°C
Humidity: 69%
Barometer: 30.28 inHg , 1025.4 hPa
Clouds: Overcast
Visibility: 10 miles , 16 km
Cloud details: Partly cloudy 7500 ft
Overcast 9000 ft
2015/02/01 12:54 KNAK 011254Z AUTO 00000KT 10SM SCT075 OVC090 M03/M08 A3028 RMK AO2 SLP257 T10281083
KW29 - Stevensville, Maryland, USA
Distance from station: SSE 31mi, 50km
Updated: Sun, 01-Feb-2015 7:55am EST

 Wind from SSW
Wind: SSW 3 mph , 6 km/h
Temperature: 30°F , -1°C
Dew Point: 27°F , -3°C
Humidity: 86%
Barometer: 30.29 inHg , 1025.7 hPa
Visibility: 10 miles , 16 km
2015/02/01 12:55 KW29 011255Z AUTO 20003KT 10SM M01/M03 A3029 RMK AO1
 
KCGS - College Park, Maryland, USA
Distance from station: SW 38mi, 61km
Updated: Sun, 01-Feb-2015 7:55am EST
Overcast
Overcast
 Wind from calm
Wind: Calm
Temperature: 28°F , -2°C
Dew Point: 23°F , -5°C
Humidity: 80%
Barometer: 30.29 inHg , 1025.7 hPa
Clouds: Overcast
Visibility: 10 miles , 16 km
Cloud details: Overcast 5000 ft
2015/02/01 12:55 KCGS 011255Z AUTO 00000KT 10SM OVC050 M02/M05 A3029 RMK AO1
KGAI - Gaithersburg, Maryland, USA
Distance from station: WSW 40mi, 65km
Updated: Sun, 01-Feb-2015 7:55am EST
Clear
Clear
 Wind from calm
Wind: Calm
Temperature: 27°F , -3°C
Dew Point: 16°F , -9°C
Humidity: 64%
Barometer: 30.29 inHg , 1025.7 hPa
Clouds: Clear
Visibility: 10 miles , 16 km
2015/02/01 12:55 KGAI 011255Z 00000KT 10SM CLR M03/M09 A3029 RMK AO1
 
KTHV - York, Pennsylvania, USA
Distance from station: NNW 40mi, 65km
Updated: Sun, 01-Feb-2015 7:53am EST
Overcast
Overcast
 Wind from calm
Wind: Calm
Temperature: 27°F , -3°C
Dew Point: 18°F , -8°C
Humidity: 69%
Barometer: 30.23 inHg , 1023.7 hPa
Clouds: Overcast
Visibility: 10 miles , 16 km
Cloud details: Mostly cloudy 4600 ft
Overcast 7000 ft
2015/02/01 12:53 KTHV 011253Z AUTO 00000KT 10SM BKN046 OVC070 M03/M08 A3023 RMK AO2 SLP249 T10331078
KFDK - Frederick, Maryland, USA
Distance from station: W 47mi, 75km
Updated: Sun, 01-Feb-2015 7:45am EST
Overcast
Overcast
 Wind from W
Wind: W 3 mph , 6 km/h
Temperature: 28°F , -2°C
Dew Point: 16°F , -9°C
Humidity: 59%
Barometer: 30.28 inHg , 1025.4 hPa
Clouds: Overcast
Visibility: 10 miles , 16 km
Cloud details: Mostly cloudy 8500 ft
Overcast 11000 ft
2015/02/01 12:45 KFDK 011245Z 28003KT 10SM BKN085 OVC110 M02/M09 A3028
 
KESN - Easton/Newnam, Maryland, USA
Distance from station: SSE 48mi, 78km
Updated: Sun, 01-Feb-2015 7:50am EST
Overcast
Overcast
 Wind from calm
Wind: Calm
Temperature: 25°F , -4°C
Dew Point: 19°F , -7°C
Humidity: 80%
Barometer: 30.31 inHg , 1026.4 hPa
Clouds: Overcast
Visibility: 10 miles , 16 km
Cloud details: Mostly cloudy 7500 ft
Overcast 10000 ft
2015/02/01 12:50 KESN 011250Z 00000KT 10SM BKN075 OVC100 M04/M07 A3031
KDCA - Washington/Natl, Washington D.c., USA
Distance from station: SW 49mi, 79km
Updated: Sun, 01-Feb-2015 7:52am EST
Overcast
Overcast
 Wind from S
Wind: S 3 mph , 6 km/h
Temperature: 32°F , 0°C
Dew Point: 18°F , -8°C
Humidity: 55%
Barometer: 30.30 inHg , 1026.1 hPa
Clouds: Overcast
Visibility: 9 miles , 14 km
Cloud details: Overcast 6500 ft
2015/02/01 12:52 KDCA 011252Z 17003KT 9SM OVC065 00/M08 A3030 RMK AO2 SLP261 T00001078 $
 
KLNS - Lancaster, Pennsylvania, USA
Distance from station: N 49mi, 79km
Updated: Sun, 01-Feb-2015 7:53am EST
Overcast
Overcast
 Wind from calm
Wind: Calm
Temperature: 21°F , -6°C
Dew Point: 16°F , -9°C
Humidity: 80%
Barometer: 30.24 inHg , 1024 hPa
Clouds: Overcast
Visibility: 8 miles , 13 km
Cloud details: Overcast 4200 ft
2015/02/01 12:53 KLNS 011253Z 00000KT 8SM OVC042 M06/M09 A3024 RMK AO2 SLP245 T10561094
KILG - Wilmington, Delaware, USA
Distance from station: ENE 50mi, 81km
Updated: Sun, 01-Feb-2015 7:51am EST
Overcast
Overcast
 Wind from WSW
Wind: WSW 5 mph , 7 km/h
Temperature: 27°F , -3°C
Wind Chill: 21°F , -6°C
Dew Point: 12°F , -11°C
Humidity: 54%
Barometer: 30.28 inHg , 1025.4 hPa
Clouds: Overcast
Visibility: 10 miles , 16 km
Cloud details: Overcast 5000 ft
2015/02/01 12:51 KILG 011251Z 25004KT 10SM OVC050 M03/M11 A3028 RMK AO2 SLP253 T10331106